Terminal Aerodrome Forecast
Issued by NWS Wilmington, OH

Current Version | Previous Version | Text Only | Print | Product List | Glossary Off
Versions: 1 2 3 4 5 6 7 8 9 10 11 12 13 14 15 16 17 18 19 20 21 22 23 24 25 26

000
FTUS41 KILN 271610 AAC
TAFDAY
TAF AMD
KDAY 271610Z 2716/2812 06011KT P6SM OVC012
      TEMPO 2716/2718 5SM BR
     FM271800 07009KT P6SM OVC022
     FM272000 06010KT P6SM BKN035
     FM280600 05008KT 5SM -SHRA OVC025=

USA.gov is the U.S. government's official web portal to all federal, state and local government web resources and services.